NCAR-RAP Real-Time Weather Data

Output produced by METARs form (18 August 2018  01:02 UTC)
found at http://weather.rap.ucar.edu/surface/
 
RJFM 180000Z 32004KT 280V350 9999 FEW020 SCT030 BKN045 26/21 Q1010
RJFM 172300Z 32004KT 9999 FEW020 SCT030 BKN045 25/21 Q1010
RJFM 172200Z 01010KT 9999 FEW020 BKN030 BKN050 25/21 Q1010
RJFM 172110Z VRB02KT 9999 FEW020 BKN035 BKN060 25/20 Q1010 RMK 1CU020 5SC035 6SC060 A2983
RJFM 171200Z 06008KT 9999 FEW020 BKN045 BKN060 28/22 Q1009
RJFM 171100Z 06008KT 9999 FEW020 BKN045 BKN060 27/22 Q1008
RJFM 171000Z 06010KT 9999 FEW020 BKN045 28/23 Q1008
RJFM 170900Z 06010KT 9999 FEW020 BKN045 28/22 Q1008
RJFM 170800Z 08010KT 9999 FEW025 BKN045 28/23 Q1007
RJFM 170700Z 05013KT 9999 FEW025 BKN040 29/23 Q1007
RJFM 170600Z 05013KT 9999 FEW020 BKN035 28/23 Q1007
RJFM 170500Z 04010KT 9999 FEW015 SCT025 BKN/// 29/25 Q1007
RJFM 170400Z 04012KT 9999 FEW010 SCT025 BKN/// 29/24 Q1008
RJFM 170300Z 04013KT 9999 FEW010 SCT025 BKN/// 29/24 Q1008
RJFM 170200Z 04013KT 9999 FEW010 SCT015 BKN020 28/25 Q1008
RJFM 170100Z 04007KT 020V080 9999 FEW005 SCT020 BKN/// 28/26 Q1008
RJFM 170000Z 01005KT 8000 FEW005 SCT010 BKN015 27/25 Q1008
RJFM 162300Z 35005KT 310V010 8000 FEW005 SCT008 BKN010 26/25 Q1009
RJFM 162200Z 31002KT 9999 FEW005 SCT010 BKN015 26/25 Q1009
RJFM 162110Z 35004KT 9999 VCFG FEW005 SCT010 BKN015 26/25 Q1008 RMK 1ST005 3ST010 5CU015 A2977 FG W-NW
RJFM 161200Z 30003KT 250V010 9999 VCSH FEW004 SCT007 BKN/// 25/24 Q1009
RJFM 161100Z 01005KT 9999 VCSH SCT008 BKN013 BKN/// 27/26 Q1009
RJFM 161000Z 02010KT 9999 -SHRA FEW005 BKN015 BKN/// 27/26 Q1008
RJFM 160900Z 02011KT 9999 -SHRA FEW006 BKN012 BKN/// 27/26 Q1008
RJFM 160800Z 03009KT 9999 VCSH FEW006 BKN012 27/26 Q1007
RJFM 160700Z 03006KT 9999 FEW005 BKN012 BKN/// 28/25 Q1007
RJFM 160600Z 02008KT 9999 VCSH FEW005 SCT010 BKN/// 27/25 Q1008
RJFM 160500Z VRB03KT 9999 -SHRA FEW003 BKN010 FEW020CB BKN030 28/27 Q1008
RJFM 160400Z 36004KT 290V020 9999 VCSH FEW005 SCT015 BKN035 28/26 Q1008
RJFM 160317Z 32006KT 280V360 7000 -SHRA FEW002 SCT010 BKN015 FEW020CB 26/26 Q1008 RMK 1ST002 3CU010 6CU015 1CB020 A2979 CB 10KM N MOV N
RJFM 160300Z 29006KT 250V320 3000 TSRA BR FEW003 SCT009 BKN010 FEW020CB 26/26 Q1009
RJFM 160207Z VRB04KT 5000 -SHRA BR FEW003 BKN012 BKN020 27/26 Q1008 RMK 1ST003 5CU012 7CU020 A2978
RJFM 160200Z 19006KT 160V230 4000 R27/0800VP1800U SHRA BR FEW005 SCT010 BKN012 28/26 Q1008
RJFM 160144Z VRB02KT 8000 R27/0650VP1800D -SHRA FEW005 BKN012 BKN020 27/26 Q1008 RMK 1ST005 5CU012 7CU020 A2978 4000NE-E
RJFM 160117Z VRB05KT 9000 -SHRA FEW005 SCT010 BKN015 27/26 Q1008 RMK 1ST005 3CU010 6CU015 A2979
RJFM 160100Z VRB03KT 4000 SHRA BR FEW004 SCT010 BKN015 27/26 Q1008
RJFM 160038Z 33005KT 260V010 3000 +SHRA BR FEW004 SCT015 BKN020 28/27 Q1008 RMK 1ST004 3CU015 6CU020 A2977 RI++
RJFM 160036Z 33005KT 260V010 3500 SHRA BR FEW004 SCT015 BKN020 28/27 Q1008 RMK 1ST004 3CU015 6CU020 A2977
RJFM 160024Z VRB02KT 3500 R27/0450VP1800D +SHRA BR FEW004 BKN020 BKN030 28/27 Q1008 RMK 1ST004 5CU020 7CU030 A2977 RI++
RJFM 160000Z 27003KT 210V300 9999 -SHRA FEW005 SCT020 BKN030 28/27 Q1008
RJFM 152343Z 14003KT 060V200 9999 VCSH FEW005 SCT025 BKN040 27/26 Q1008 RMK 1ST005 4CU025 6CU040 A2977
RJFM 152333Z VRB03KT 8000 R27/1000VP1800D -SHRA FEW005 SCT025 BKN035 27/26 Q1008 RMK 1ST005 4CU025 6CU035 A2977 4000NE-E
RJFM 152300Z 33004KT 9999 VCSH FEW005 SCT025 BKN035 27/26 Q1007
RJFM 152244Z VRB02KT 7000 R27/0650VP1800U -SHRA FEW005 SCT020 BKN030 27/26 Q1007 RMK 1ST005 4CU020 6CU030 A2975
RJFM 152234Z 05003KT 350V140 4000 R27/0500VP1800D +SHRA BR FEW005 BKN020 BKN030 26/26 Q1007 RMK 1ST005 5CU020 6CU030 A2976 RI++
RJFM 152200Z VRB02KT 9999 -SHRA FEW003 SCT020 BKN030 26/26 Q1007
RJFM 152110Z 30004KT 9999 -SHRA FEW005 SCT020 BKN035 26/26 Q1007 RMK 1ST005 3CU020 6CU035 A2976